Flight Track Log - Related Links

Times and Time Zones

All times are in EDT time to prevent confusion due to time zone crossing. See the BJS439 flight status page for this flight to view local times or setup timezone preferences in your user account.

Time Position Orientation Groundspeed Altitude Reporting Facility
EDT Latitude Longitude Course Direction KTS MPH feet Rate Location/Type
Sun 11:55:00 AM 40.9000 -74.0500 270° West 183 211 2,200  Level New York TRACON
Sun 11:56:00 AM 40.9000 -74.1000 270° West 196 226 5,100 1,900 Climbing New York TRACON
Sun 11:57:00 AM 40.8833 -74.2000 258° West 256 295 6,000 1,350 Climbing New York TRACON
Sun 11:58:00 AM 40.8667 -74.2833 255° West 267 307 7,800 2,050 Climbing New York TRACON
Sun 11:59:00 AM 40.8333 -74.3833 246° West 268 308 10,100 2,600 Climbing New York TRACON
Sun 12:00:00 PM 40.7000 -74.8903 270° West  Level FlightAware Approximate
Sun 12:01:30 PM 40.7792 -74.6514 255° West 328 377 16,900  Level New York Center
Sun 12:02:27 PM 40.7544 -74.7653 254° West 350 403 17,000 51 Climbing New York Center
Sun 12:03:28 PM 40.7253 -74.8894 253° West 360 414 17,000 443 Level New York Center
Sun 12:04:29 PM 40.6978 -75.0136 254° West 355 409 17,900 2,269 Climbing New York Center
Sun 12:05:27 PM 40.6556 -75.1422 247° West 355 409 21,500 3,650 Climbing New York Center
Sun 12:06:29 PM 40.6014 -75.2536 237° Southwest 362 417 25,200 3,393 Climbing New York Center
Sun 12:07:29 PM 40.5536 -75.3625 240° Southwest 362 417 28,400 2,622 Climbing New York Center
Sun 12:08:28 PM 40.5056 -75.4714 240° Southwest 357 411 30,400 2,150 Climbing New York Center
Sun 12:09:29 PM 40.4553 -75.5825 239° Southwest 352 405 32,700 2,269 Climbing New York Center
Sun 12:10:27 PM 40.4069 -75.6908 240° Southwest 352 405 34,900 2,050 Climbing New York Center
Sun 12:11:29 PM 40.3589 -75.7908 238° Southwest 342 394 36,800 1,426 Climbing New York Center
Sun 12:12:29 PM 40.3131 -75.8883 238° Southwest 329 379 37,800 992 Climbing New York Center
Sun 12:13:30 PM 40.2586 -75.9903 235° Southwest 334 384 38,800 763 Climbing New York Center
Sun 12:14:27 PM 40.2100 -76.0983 240° Southwest 339 390 39,300 508 Climbing New York Center
Sun 12:15:28 PM 40.1656 -76.2061 242° Southwest 339 390 39,800 590 Climbing New York Center
Sun 12:16:29 PM 40.1108 -76.3050 234° Southwest 353 406 40,500 790 Climbing New York Center
Sun 12:18:53 PM 39.9844 -76.5853 240° Southwest 363 418 42,500 735 Climbing Washington Center
Sun 12:19:53 PM 39.9358 -76.6872 238° Southwest 357 411 43,000 250 Climbing Washington Center
Sun 12:20:53 PM 39.8869 -76.7839 237° Southwest 352 405 43,000  Level Washington Center
Sun 12:21:53 PM 39.8336 -76.8967 238° Southwest 358 412 43,000  Level Washington Center
Sun 12:22:53 PM 39.7825 -77.0117 240° Southwest 363 418 43,000  Level Washington Center
Sun 12:23:53 PM 39.7267 -77.1319 239° Southwest 375 432 43,000  Level Washington Center
Sun 12:24:53 PM 39.6689 -77.2494 237° Southwest 387 445 43,000  Level Washington Center
Sun 12:25:53 PM 39.6131 -77.3694 239° Southwest 387 445 43,000  Level Washington Center
Sun 12:26:53 PM 39.5569 -77.4892 239° Southwest 387 445 43,000  Level Washington Center
Sun 12:27:53 PM 39.5011 -77.6061 238° Southwest 387 445 43,000  Level Washington Center
Sun 12:28:53 PM 39.4447 -77.7228 238° Southwest 387 445 43,000  Level Washington Center
Sun 12:29:53 PM 39.3864 -77.8419 238° Southwest 387 445 43,000  Level Washington Center
Sun 12:30:53 PM 39.3381 -77.9664 243° Southwest 387 445 43,000  Level Washington Center
Sun 12:31:53 PM 39.2853 -78.1042 244° Southwest 387 445 43,000  Level Washington Center
Sun 12:32:53 PM 39.2514 -78.2342 251° West 392 451 43,000  Level Washington Center
Sun 12:33:53 PM 39.2211 -78.3672 254° West 392 451 43,000  Level Washington Center
Sun 12:34:53 PM 39.1889 -78.4997 253° West 387 445 43,000  Level Washington Center
Sun 12:35:53 PM 39.1564 -78.6350 253° West 387 445 43,000  Level Washington Center
Sun 12:36:53 PM 39.1258 -78.7703 254° West 393 452 43,000  Level Washington Center
Sun 12:37:53 PM 39.0931 -78.9025 252° West 393 452 43,000  Level Washington Center
Sun 12:38:53 PM 39.0600 -79.0347 252° West 393 452 43,000  Level Washington Center
Sun 12:39:53 PM 39.0269 -79.1669 252° West 393 452 43,000  Level Washington Center
Sun 12:40:53 PM 38.9939 -79.3014 252° West 393 452 43,000  Level Washington Center
Sun 12:41:53 PM 38.9625 -79.4333 253° West 393 452 43,000  Level Washington Center
Sun 12:42:53 PM 38.9289 -79.5678 252° West 393 452 43,000  Level Washington Center
Sun 12:43:53 PM 38.8950 -79.7072 253° West 406 467 43,000  Level Washington Center
Sun 12:44:53 PM 38.8611 -79.8414 252° West 406 467 43,000  Level Washington Center
Sun 12:45:53 PM 38.8297 -79.9622 252° West 400 460 43,000  Level Washington Center
Sun 12:46:53 PM 38.7978 -80.0961 253° West 395 455 43,000  Level Washington Center
Sun 12:47:42 PM 38.7642 -80.2111 249° West 395 455 43,000  Level Indianapolis Center
Sun 12:48:44 PM 38.7300 -80.3450 252° West 395 455 43,000  Level Indianapolis Center
Sun 12:49:46 PM 38.6942 -80.4797 251° West 398 458 43,000  Level Indianapolis Center
Sun 12:50:48 PM 38.6597 -80.6131 252° West 395 455 43,000  Level Indianapolis Center
Sun 12:51:50 PM 38.6236 -80.7469 251° West 397 457 43,000  Level Indianapolis Center
Sun 12:52:52 PM 38.5878 -80.8819 251° West 398 458 43,000  Level Indianapolis Center
Sun 12:53:54 PM 38.5522 -81.0178 252° West 400 460 43,000  Level Indianapolis Center
Sun 12:54:55 PM 38.5150 -81.1533 251° West 401 461 43,000  Level Indianapolis Center
Sun 12:55:57 PM 38.4717 -81.3183 252° West 404 465 43,000  Level Indianapolis Center
Sun 12:56:59 PM 38.4342 -81.4567 251° West 406 467 43,000  Level Indianapolis Center
Sun 12:58:01 PM 38.3975 -81.5922 251° West 401 461 43,000  Level Indianapolis Center
Sun 12:59:03 PM 38.3606 -81.7308 251° West 408 470 43,000  Level Indianapolis Center
Sun 01:00:05 PM 38.3233 -81.8650 251° West 402 463 43,000  Level Indianapolis Center
Sun 01:01:07 PM 38.2850 -82.0000 250° West 402 463 43,000  Level Indianapolis Center
Sun 01:02:09 PM 38.2472 -82.1358 251° West 406 467 43,000  Level Indianapolis Center
Sun 01:03:10 PM 38.2100 -82.2700 251° West 402 463 43,000  Level Indianapolis Center
Sun 01:04:12 PM 38.1703 -82.4056 250° West 408 470 43,000  Level Indianapolis Center
Sun 01:05:14 PM 38.1236 -82.5694 250° West 405 466 43,000  Level Indianapolis Center
Sun 01:06:16 PM 38.0853 -82.7036 250° West 405 466 43,000  Level Indianapolis Center
Sun 01:07:18 PM 38.0469 -82.8372 250° West 404 465 43,000  Level Indianapolis Center
Sun 01:08:20 PM 38.0072 -82.9708 249° West 405 466 43,000  Level Indianapolis Center
Sun 01:09:22 PM 37.9678 -83.1044 250° West 405 466 43,000  Level Indianapolis Center
Sun 01:10:23 PM 37.9294 -83.2389 250° West 406 467 43,000  Level Indianapolis Center
Sun 01:11:25 PM 37.8831 -83.3931 249° West 404 465 43,000  Level Indianapolis Center
Sun 01:12:27 PM 37.8433 -83.5272 249° West 404 465 43,000  Level Indianapolis Center
Sun 01:13:29 PM 37.8031 -83.6611 249° West 405 466 43,000  Level Indianapolis Center
Sun 01:14:31 PM 37.7622 -83.7942 249° West 408 470 43,000  Level Indianapolis Center
Sun 01:15:33 PM 37.7231 -83.9264 250° West 403 464 43,000  Level Indianapolis Center
Sun 01:16:35 PM 37.6767 -84.0817 249° West 405 466 43,000  Level Indianapolis Center
Sun 01:17:36 PM 37.6350 -84.2147 248° West 407 468 43,000  Level Indianapolis Center
Sun 01:18:38 PM 37.5942 -84.3481 249° West 406 467 43,000  Level Indianapolis Center
Sun 01:19:40 PM 37.5544 -84.4819 250° West 409 471 43,000  Level Indianapolis Center
Sun 01:20:42 PM 37.5114 -84.6136 248° West 407 468 43,000  Level Indianapolis Center
Sun 01:21:44 PM 37.4706 -84.7469 249° West 408 470 43,000  Level Indianapolis Center
Sun 01:22:45 PM 37.4217 -84.9022 248° West 410 472 43,000  Level Indianapolis Center
Sun 01:23:47 PM 37.3814 -85.0353 249° West 408 470 43,000  Level Indianapolis Center
Sun 01:24:49 PM 37.3394 -85.1675 248° West 406 467 43,000  Level Indianapolis Center
Sun 01:25:51 PM 37.2967 -85.3000 248° West 410 472 43,000  Level Indianapolis Center
Sun 01:26:53 PM 37.2547 -85.4328 248° West 409 471 43,000  Level Indianapolis Center
Sun 01:27:54 PM 37.2125 -85.5697 249° West 412 474 43,000  Level Indianapolis Center
Sun 01:28:34 PM 37.1844 -85.6575 248° West 420 483 43,000  Level Memphis Center
Sun 01:29:34 PM 37.1378 -85.8033 248° West 420 483 43,000  Level Memphis Center
Sun 01:30:34 PM 37.0967 -85.9331 248° West 420 483 43,000  Level Memphis Center
Sun 01:31:34 PM 37.0514 -86.0656 247° West 420 483 43,000  Level Memphis Center
Sun 01:32:34 PM 37.0100 -86.1950 248° West 414 476 43,000  Level Memphis Center
Sun 01:33:34 PM 36.9683 -86.3244 248° West 414 476 43,000  Level Memphis Center
Sun 01:34:34 PM 36.9267 -86.4539 248° West 414 476 43,000  Level Memphis Center
Sun 01:35:34 PM 36.8767 -86.5858 245° Southwest 414 476 43,000  Level Memphis Center
Sun 01:36:34 PM 36.8325 -86.7125 246° West 409 471 43,000  Level Memphis Center
Sun 01:37:34 PM 36.7883 -86.8414 247° West 404 465 43,000  Level Memphis Center
Sun 01:38:34 PM 36.7417 -86.9703 246° West 404 465 43,000  Level Memphis Center
Sun 01:39:34 PM 36.6931 -87.0992 245° Southwest 404 465 43,000  Level Memphis Center
Sun 01:40:34 PM 36.6486 -87.2275 247° West 404 465 43,000  Level Memphis Center
Sun 01:41:34 PM 36.5975 -87.3564 244° Southwest 404 465 43,000  Level Memphis Center
Sun 01:42:34 PM 36.5506 -87.4844 246° West 404 465 43,000  Level Memphis Center
Sun 01:43:34 PM 36.5072 -87.5997 245° Southwest 404 465 43,000  Level Memphis Center
Sun 01:44:34 PM 36.4600 -87.7278 245° Southwest 409 471 43,000  Level Memphis Center
Sun 01:45:34 PM 36.4169 -87.8581 248° West 409 471 43,000  Level Memphis Center
Sun 01:46:34 PM 36.3736 -87.9908 248° West 415 478 43,000  Level Memphis Center
Sun 01:47:34 PM 36.3283 -88.1339 249° West 420 483 43,000  Level Memphis Center
Sun 01:48:34 PM 36.2886 -88.2483 247° West 415 478 43,000  Level Memphis Center
Sun 01:49:34 PM 36.2469 -88.3806 249° West 415 478 43,000  Level Memphis Center
Sun 01:50:34 PM 36.2011 -88.5103 246° West 415 478 43,000  Level Memphis Center
Sun 01:51:34 PM 36.1572 -88.6425 248° West 415 478 43,000  Level Memphis Center
Sun 01:52:34 PM 36.1131 -88.7717 247° West 415 478 43,000  Level Memphis Center
Sun 01:53:34 PM 36.0708 -88.9036 248° West 415 478 43,000  Level Memphis Center
Sun 01:54:34 PM 36.0242 -89.0328 246° West 415 478 43,000  Level Memphis Center
Sun 01:55:34 PM 35.9797 -89.1617 247° West 415 478 43,000  Level Memphis Center
Sun 01:56:34 PM 35.9350 -89.2931 247° West 415 478 43,000  Level Memphis Center
Sun 01:57:34 PM 35.8944 -89.4217 249° West 415 478 43,000  Level Memphis Center
Sun 01:58:34 PM 35.8494 -89.5503 247° West 415 478 43,000  Level Memphis Center
Sun 01:59:34 PM 35.8064 -89.6761 247° West 415 478 43,000  Level Memphis Center
Sun 02:00:34 PM 35.7611 -89.8069 247° West 415 478 43,000  Level Memphis Center
Sun 02:01:34 PM 35.7158 -89.9350 246° West 415 478 43,000  Level Memphis Center
Sun 02:02:34 PM 35.6744 -90.0733 250° West 405 466 43,000  Level Memphis Center
Sun 02:03:34 PM 35.6350 -90.1883 247° West 405 466 43,000  Level Memphis Center
Sun 02:04:34 PM 35.5894 -90.3189 247° West 410 472 43,000  Level Memphis Center
Sun 02:05:34 PM 35.5433 -90.4439 246° West 410 472 43,000  Level Memphis Center
Sun 02:06:34 PM 35.4994 -90.5739 248° West 410 472 43,000  Level Memphis Center
Sun 02:07:34 PM 35.4533 -90.7011 246° West 410 472 43,000  Level Memphis Center
Sun 02:08:34 PM 35.4092 -90.8258 247° West 415 478 43,000  Level Memphis Center
Sun 02:09:34 PM 35.3606 -90.9553 245° Southwest 415 478 43,000  Level Memphis Center
Sun 02:10:34 PM 35.3119 -91.0925 247° West 415 478 43,000  Level Memphis Center
Sun 02:11:34 PM 35.2653 -91.2192 246° West 415 478 43,000  Level Memphis Center
Sun 02:12:34 PM 35.2183 -91.3458 246° West 415 478 43,000  Level Memphis Center
Sun 02:13:34 PM 35.1736 -91.4722 247° West 415 478 43,000  Level Memphis Center
Sun 02:14:34 PM 35.1222 -91.6011 244° Southwest 415 478 43,000  Level Memphis Center
Sun 02:15:34 PM 35.0769 -91.7297 247° West 415 478 43,000  Level Memphis Center
Sun 02:16:34 PM 35.0339 -91.8558 247° West 415 478 43,000  Level Memphis Center
Sun 02:17:34 PM 34.9822 -91.9867 244° Southwest 415 478 43,000  Level Memphis Center
Sun 02:18:34 PM 34.9344 -92.1150 246° West 415 478 43,000  Level Memphis Center
Sun 02:19:34 PM 34.8933 -92.2206 245° Southwest 421 484 43,000  Level Memphis Center
Sun 02:20:34 PM 34.8433 -92.3586 246° West 416 479 43,000  Level Memphis Center
Sun 02:21:34 PM 34.7953 -92.4889 246° West 416 479 43,000  Level Memphis Center
Sun 02:22:34 PM 34.7492 -92.6142 246° West 416 479 43,000  Level Memphis Center
Sun 02:23:34 PM 34.6989 -92.7392 244° Southwest 416 479 43,000  Level Memphis Center
Sun 02:24:34 PM 34.6525 -92.8667 246° West 416 479 43,000  Level Memphis Center
Sun 02:25:34 PM 34.6042 -92.9939 245° Southwest 416 479 43,000  Level Memphis Center
Sun 02:26:34 PM 34.5575 -93.1186 246° West 416 479 43,000  Level Memphis Center
Sun 02:27:34 PM 34.5089 -93.2381 244° Southwest 410 472 43,000  Level Memphis Center
Sun 02:29:18 PM 34.4283 -93.4583 246° West 407 468 43,000  Level Fort Worth Center
Sun 02:30:18 PM 34.3819 -93.5811 245° Southwest 407 468 43,000  Level Fort Worth Center
Sun 02:31:18 PM 34.3333 -93.7014 244° Southwest 407 468 43,000  Level Fort Worth Center
Sun 02:32:18 PM 34.2869 -93.8242 245° Southwest 407 468 43,000  Level Fort Worth Center
Sun 02:33:18 PM 34.2400 -93.9417 244° Southwest 401 461 43,000  Level Fort Worth Center
Sun 02:34:18 PM 34.1914 -94.0642 244° Southwest 401 461 43,000  Level Fort Worth Center
Sun 02:35:18 PM 34.1444 -94.1864 245° Southwest 401 461 43,000  Level Fort Worth Center
Sun 02:36:18 PM 34.0953 -94.3061 244° Southwest 401 461 43,000 -1,050 Level Fort Worth Center
Sun 02:37:18 PM 34.0481 -94.4281 245° Southwest 406 467 40,900 -2,350 Descending Fort Worth Center
Sun 02:38:18 PM 33.9969 -94.5525 244° Southwest 406 467 38,300 -2,800 Descending Fort Worth Center
Sun 02:39:18 PM 33.9472 -94.6744 244° Southwest 406 467 35,300 -3,000 Descending Fort Worth Center
Sun 02:40:18 PM 33.8997 -94.7933 244° Southwest 401 461 32,300 -3,000 Descending Fort Worth Center
Sun 02:41:18 PM 33.8481 -94.9150 243° Southwest 406 467 29,300 -3,000 Descending Fort Worth Center
Sun 02:42:18 PM 33.8003 -95.0389 245° Southwest 406 467 26,300 -2,600 Descending Fort Worth Center
Sun 02:43:18 PM 33.7483 -95.1628 243° Southwest 406 467 24,100 -1,150 Descending Fort Worth Center
Sun 02:44:18 PM 33.7003 -95.2839 245° Southwest 411 473 24,000 -50 Descending Fort Worth Center
Sun 02:45:18 PM 33.6481 -95.4047 243° Southwest 411 473 24,000  Level Fort Worth Center
Sun 02:46:18 PM 33.5978 -95.5306 244° Southwest 411 473 24,000 -250 Level Fort Worth Center
Sun 02:47:18 PM 33.5456 -95.6614 244° Southwest 400 460 23,500 -1,600 Descending Fort Worth Center
Sun 02:48:18 PM 33.5011 -95.7694 244° Southwest 400 460 20,800 -2,900 Descending Fort Worth Center
Sun 02:49:18 PM 33.4442 -95.9025 243° Southwest 405 466 17,700 -2,900 Descending Fort Worth Center
Sun 02:50:18 PM 33.4017 -96.0050 244° Southwest 395 455 15,000 -2,950 Descending Fort Worth Center
Sun 02:51:18 PM 33.3528 -96.1228 244° Southwest 371 427 11,800 -2,450 Descending Fort Worth Center
Sun 02:52:18 PM 33.3181 -96.2078 244° Southwest 340 391 10,100 -1,400 Descending Fort Worth Center
Sun 02:53:18 PM 33.2794 -96.2978 243° Southwest 298 343 9,000 -1,250 Descending Fort Worth Center
Sun 02:54:18 PM 33.2444 -96.3678 239° Southwest 281 323 7,600 -1,650 Descending Fort Worth Center
Sun 02:55:18 PM 33.2014 -96.4528 239° Southwest 281 323 5,700 -1,550 Descending Fort Worth Center
Sun 02:56:18 PM 33.1642 -96.5200 237° Southwest 272 313 4,500 -850 Descending Fort Worth Center
Sun 02:57:18 PM 33.1272 -96.5925 239° Southwest 267 307 4,000 -250 Descending Fort Worth Center
Sun 02:58:18 PM 33.0775 -96.6647 231° Southwest 262 302 4,000  Level Fort Worth Center
Sun 02:59:18 PM 33.0361 -96.7244 230° Southwest 262 302 4,000  Level Fort Worth Center
Sun 03:00:18 PM 32.9947 -96.7867 232° Southwest 244 281 4,000 -200 Level Fort Worth Center
Sun 03:01:18 PM 32.9636 -96.8317 231° Southwest 215 247 3,600 -706 Descending Fort Worth Center
Sun 03:02:17 PM 32.9333 -96.8833 235° Southwest 190 219 2,600 -1,059 Descending Dallas / Fort Worth TRACON
Sun 03:03:17 PM 32.8833 -96.8833 180° South 150 173 1,500 -947 Descending Dallas / Fort Worth TRACON
Sun 03:04:11 PM 32.8667 -96.8667 140° Southeast 127 146 800 -778 Descending Dallas / Fort Worth TRACON

Login

Don't have an account? Register now (free) for customized features, flight alerts, and more!